createdAt,value
2022-09-27T00:01:06.920Z,12.60
2022-09-27T00:03:34.070Z,12.60
2022-09-27T00:06:25.396Z,12.60
2022-09-27T00:08:52.481Z,12.70
2022-09-27T00:11:32.363Z,12.70
2022-09-27T00:14:00.570Z,12.70
2022-09-27T00:16:30.352Z,12.60
2022-09-27T00:19:02.326Z,12.60
2022-09-27T00:21:30.901Z,12.60
2022-09-27T00:23:59.433Z,12.60
2022-09-27T00:26:27.519Z,12.60
2022-09-27T00:28:54.597Z,12.60
2022-09-27T00:31:29.582Z,12.50
2022-09-27T00:34:01.417Z,12.50
2022-09-27T00:36:30.350Z,12.50
2022-09-27T00:39:01.039Z,12.40
2022-09-27T00:41:32.173Z,12.50
2022-09-27T00:44:01.255Z,12.40
2022-09-27T00:46:37.358Z,12.50
2022-09-27T00:49:16.921Z,12.50
2022-09-27T00:51:46.608Z,12.50
2022-09-27T00:54:16.121Z,12.50
2022-09-27T00:56:45.166Z,12.50
2022-09-27T00:59:26.824Z,12.50
2022-09-27T01:01:53.928Z,12.50
2022-09-27T01:04:24.565Z,12.50
2022-09-27T01:06:53.106Z,12.50
2022-09-27T01:09:21.393Z,12.40
2022-09-27T01:11:51.156Z,12.30
2022-09-27T01:14:18.126Z,12.30
2022-09-27T01:16:51.091Z,12.20
2022-09-27T01:19:36.734Z,12.20
2022-09-27T01:22:15.185Z,12.10
2022-09-27T01:25:04.583Z,12.10
2022-09-27T01:27:41.075Z,12.10
2022-09-27T01:30:48.986Z,12.10
2022-09-27T01:33:48.190Z,12.10
2022-09-27T01:36:27.614Z,12.10
2022-09-27T01:39:02.953Z,12.00
2022-09-27T01:42:12.799Z,12.10
2022-09-27T01:44:47.791Z,12.10
2022-09-27T01:47:22.531Z,12.10
2022-09-27T01:50:06.366Z,12.10
2022-09-27T01:52:55.182Z,12.10
2022-09-27T01:55:30.175Z,12.10
2022-09-27T01:58:42.347Z,12.00
2022-09-27T02:01:10.775Z,12.00
2022-09-27T02:03:42.646Z,12.00
2022-09-27T02:06:48.016Z,12.00
2022-09-27T02:09:47.949Z,12.00
2022-09-27T02:12:24.806Z,11.90
2022-09-27T02:15:00.137Z,11.90
2022-09-27T02:17:36.620Z,12.00
2022-09-27T02:20:31.773Z,12.00
2022-09-27T02:23:15.087Z,12.00
2022-09-27T02:26:13.866Z,12.00
2022-09-27T02:28:43.596Z,12.00
2022-09-27T02:31:13.914Z,12.00
2022-09-27T02:33:56.418Z,12.00
2022-09-27T02:36:24.141Z,12.00
2022-09-27T02:38:51.400Z,12.00
2022-09-27T02:41:23.244Z,12.00
2022-09-27T02:43:55.714Z,12.00
2022-09-27T02:46:35.703Z,12.10
2022-09-27T02:49:23.363Z,12.10
2022-09-27T02:52:39.068Z,12.00
2022-09-27T02:55:12.326Z,12.10
2022-09-27T02:58:21.359Z,12.10
2022-09-27T03:01:33.109Z,12.10
2022-09-27T03:04:26.546Z,12.10
2022-09-27T03:06:56.043Z,12.10
2022-09-27T03:09:28.864Z,12.10
2022-09-27T03:11:55.903Z,12.10
2022-09-27T03:14:23.156Z,12.10
2022-09-27T03:17:07.385Z,12.10
2022-09-27T03:20:06.940Z,12.10
2022-09-27T03:22:57.674Z,12.10
2022-09-27T03:25:24.678Z,12.10
2022-09-27T03:27:51.905Z,12.10
2022-09-27T03:30:18.952Z,12.00
2022-09-27T03:32:46.699Z,12.00
2022-09-27T03:35:32.149Z,12.00
2022-09-27T03:37:59.580Z,11.90
2022-09-27T03:40:26.619Z,11.90
2022-09-27T03:42:53.736Z,11.80
2022-09-27T03:45:21.114Z,11.80
2022-09-27T03:47:48.204Z,11.80
2022-09-27T03:50:15.836Z,11.80
2022-09-27T03:52:43.974Z,11.80
2022-09-27T03:55:12.474Z,11.70
2022-09-27T03:57:40.292Z,11.70
2022-09-27T04:00:09.711Z,11.60
2022-09-27T04:02:39.737Z,11.60
2022-09-27T04:05:26.395Z,11.60
2022-09-27T04:07:57.493Z,11.60
2022-09-27T04:10:24.878Z,11.50
2022-09-27T04:12:52.253Z,11.60
2022-09-27T04:15:22.156Z,11.50
2022-09-27T04:17:49.957Z,11.50
2022-09-27T04:20:36.507Z,11.50
2022-09-27T04:23:13.347Z,11.50
2022-09-27T04:25:47.551Z,11.50
2022-09-27T04:28:38.048Z,11.50
2022-09-27T04:31:05.213Z,11.50
2022-09-27T04:33:50.547Z,11.50
2022-09-27T04:36:28.883Z,11.50
2022-09-27T04:39:11.361Z,11.50
2022-09-27T04:41:42.111Z,11.40
2022-09-27T04:44:09.047Z,11.40
2022-09-27T04:46:36.139Z,11.40
2022-09-27T04:49:03.384Z,11.40
2022-09-27T04:51:32.557Z,11.40
2022-09-27T04:54:00.704Z,11.40
2022-09-27T04:56:30.672Z,11.40
2022-09-27T04:58:58.707Z,11.30
2022-09-27T05:01:25.980Z,11.30
2022-09-27T05:03:55.772Z,11.30
2022-09-27T05:06:23.955Z,11.30
2022-09-27T05:08:51.085Z,11.30
2022-09-27T05:11:18.066Z,11.30
2022-09-27T05:14:05.713Z,11.30
2022-09-27T05:16:47.889Z,11.30
2022-09-27T05:19:51.093Z,11.20
2022-09-27T05:22:32.035Z,11.20
2022-09-27T05:24:59.735Z,11.20
2022-09-27T05:27:26.943Z,11.20
2022-09-27T05:29:54.583Z,11.20
2022-09-27T05:32:27.136Z,11.20
2022-09-27T05:35:14.763Z,11.20
2022-09-27T05:37:42.137Z,11.20
2022-09-27T05:40:29.366Z,11.20
2022-09-27T05:42:57.775Z,11.20
2022-09-27T05:45:25.632Z,11.20
2022-09-27T05:47:58.136Z,11.20
2022-09-27T05:50:27.469Z,11.30
2022-09-27T05:52:55.443Z,11.30
2022-09-27T05:55:23.652Z,11.30
2022-09-27T05:58:11.128Z,11.30
2022-09-27T06:00:44.262Z,11.30
2022-09-27T06:03:31.215Z,11.30
2022-09-27T06:06:16.883Z,11.20
2022-09-27T06:08:49.689Z,11.20
2022-09-27T06:11:19.374Z,11.20
2022-09-27T06:13:48.412Z,11.30
2022-09-27T06:16:15.524Z,11.40
2022-09-27T06:18:46.005Z,11.40
2022-09-27T06:21:13.640Z,11.50
2022-09-27T06:23:53.486Z,11.50
2022-09-27T06:26:29.564Z,11.50
2022-09-27T06:29:10.639Z,11.50
2022-09-27T06:31:43.002Z,11.40
2022-09-27T06:34:22.011Z,11.30
2022-09-27T06:36:51.506Z,11.30
2022-09-27T06:39:19.862Z,11.30
2022-09-27T06:42:02.213Z,11.40
2022-09-27T06:44:50.323Z,11.40
2022-09-27T06:47:36.408Z,11.30
2022-09-27T06:50:17.730Z,11.30
2022-09-27T06:52:49.468Z,11.30
2022-09-27T06:55:18.702Z,11.30
2022-09-27T06:58:05.165Z,11.40
2022-09-27T07:00:32.445Z,11.40
2022-09-27T07:03:05.186Z,11.50
2022-09-27T07:06:00.918Z,11.50
2022-09-27T07:08:43.984Z,11.50
2022-09-27T07:11:11.794Z,11.50
2022-09-27T07:13:42.962Z,11.60
2022-09-27T07:16:14.296Z,11.70
2022-09-27T07:18:43.196Z,11.80
2022-09-27T07:21:12.589Z,11.90
2022-09-27T07:23:39.845Z,11.80
2022-09-27T07:26:10.558Z,11.80
2022-09-27T07:28:38.213Z,11.70
2022-09-27T07:31:07.662Z,11.60
2022-09-27T07:33:34.987Z,11.70
2022-09-27T07:36:11.498Z,11.70
2022-09-27T07:38:41.450Z,11.70
2022-09-27T07:41:14.886Z,11.70
2022-09-27T07:43:46.556Z,11.80
2022-09-27T07:46:14.871Z,11.80
2022-09-27T07:49:07.126Z,11.90
2022-09-27T07:51:34.180Z,11.90
2022-09-27T07:54:08.894Z,12.00
2022-09-27T07:56:35.995Z,12.00
2022-09-27T07:59:04.859Z,12.00
2022-09-27T08:01:31.877Z,12.00
2022-09-27T08:03:58.916Z,12.00
2022-09-27T08:06:26.453Z,12.00
2022-09-27T08:08:55.453Z,12.10
2022-09-27T08:11:22.365Z,12.10
2022-09-27T08:13:52.727Z,12.20
2022-09-27T08:16:23.770Z,12.30
2022-09-27T08:19:11.567Z,12.30
2022-09-27T08:22:04.533Z,12.30
2022-09-27T08:24:42.605Z,12.20
2022-09-27T08:27:19.220Z,12.20
2022-09-27T08:29:49.692Z,12.10
2022-09-27T08:32:22.160Z,12.10
2022-09-27T08:34:50.280Z,12.00
2022-09-27T08:37:17.217Z,12.00
2022-09-27T08:39:47.739Z,11.90
2022-09-27T08:42:58.450Z,11.90
2022-09-27T08:45:32.858Z,11.80
2022-09-27T08:48:03.628Z,11.70
2022-09-27T08:50:39.746Z,11.70
2022-09-27T08:53:22.075Z,11.50
2022-09-27T08:55:58.979Z,11.50
2022-09-27T08:59:01.393Z,11.60
2022-09-27T09:01:34.446Z,11.70
2022-09-27T09:04:10.953Z,11.70
2022-09-27T09:06:43.298Z,11.80
2022-09-27T09:09:51.818Z,11.90
2022-09-27T09:12:47.223Z,12.00
2022-09-27T09:15:35.444Z,12.00
2022-09-27T09:18:04.958Z,12.10
2022-09-27T09:21:05.822Z,12.00
2022-09-27T09:23:38.867Z,12.00
2022-09-27T09:26:44.815Z,11.90
2022-09-27T09:29:20.792Z,11.80
2022-09-27T09:32:11.318Z,11.70
2022-09-27T09:34:43.399Z,11.70
2022-09-27T09:37:29.205Z,11.70
2022-09-27T09:40:22.065Z,11.80
2022-09-27T09:43:02.775Z,11.90
2022-09-27T09:45:43.163Z,11.90
2022-09-27T09:48:11.453Z,11.90
2022-09-27T09:50:51.949Z,11.90
2022-09-27T09:53:25.739Z,12.00
2022-09-27T09:55:58.489Z,12.00
2022-09-27T09:58:52.157Z,12.10
2022-09-27T10:01:37.767Z,12.20
2022-09-27T10:04:04.938Z,12.30
2022-09-27T10:06:32.560Z,12.40
2022-09-27T10:09:01.937Z,12.40
2022-09-27T10:11:44.043Z,12.30
2022-09-27T10:14:28.493Z,12.20
2022-09-27T10:17:04.853Z,12.10
2022-09-27T10:19:34.461Z,12.20
2022-09-27T10:22:32.637Z,12.30
2022-09-27T10:25:09.030Z,12.60
2022-09-27T10:27:49.583Z,12.80
2022-09-27T10:30:32.177Z,12.90
2022-09-27T10:33:07.887Z,12.80
2022-09-27T10:35:45.334Z,12.80
2022-09-27T10:38:27.376Z,12.80
2022-09-27T10:41:16.783Z,12.80
2022-09-27T10:43:44.368Z,12.70
2022-09-27T10:46:25.827Z,12.80
2022-09-27T10:49:08.574Z,12.70
2022-09-27T10:51:36.167Z,12.70
2022-09-27T10:54:04.145Z,12.60
2022-09-27T10:56:34.611Z,12.60
2022-09-27T10:59:04.233Z,12.70
2022-09-27T11:01:45.512Z,12.80
2022-09-27T11:04:37.947Z,12.90
2022-09-27T11:07:08.148Z,13.00
2022-09-27T11:09:50.029Z,13.20
2022-09-27T11:12:22.841Z,13.40
2022-09-27T11:15:02.652Z,13.50
2022-09-27T11:18:01.333Z,13.60
2022-09-27T11:20:39.061Z,13.60
2022-09-27T11:23:15.417Z,13.70
2022-09-27T11:26:04.382Z,13.80
2022-09-27T11:28:46.677Z,13.70
2022-09-27T11:31:25.086Z,13.70
2022-09-27T11:34:05.712Z,13.60
2022-09-27T11:37:06.130Z,13.60
2022-09-27T11:39:46.168Z,13.70
2022-09-27T11:42:35.639Z,13.60
2022-09-27T11:45:50.555Z,13.50
2022-09-27T11:48:39.549Z,13.30
2022-09-27T11:51:12.421Z,13.10
2022-09-27T11:53:52.222Z,13.10
2022-09-27T11:56:42.518Z,13.00
2022-09-27T11:59:34.194Z,13.00
2022-09-27T12:02:40.396Z,13.20
2022-09-27T12:05:34.314Z,13.50
2022-09-27T12:08:28.296Z,13.80
2022-09-27T12:11:09.152Z,14.00
2022-09-27T12:14:03.921Z,14.10
2022-09-27T12:16:32.168Z,14.30
2022-09-27T12:19:02.311Z,14.60
2022-09-27T12:22:02.233Z,14.80
2022-09-27T12:24:30.999Z,15.20
2022-09-27T12:27:41.526Z,15.40
2022-09-27T12:30:13.946Z,15.40
2022-09-27T12:32:59.788Z,15.50
2022-09-27T12:35:34.265Z,15.80
2022-09-27T12:38:06.344Z,16.10
2022-09-27T12:40:48.426Z,16.00
2022-09-27T12:43:31.923Z,15.90
2022-09-27T12:46:30.366Z,15.60
2022-09-27T12:49:15.750Z,15.30
2022-09-27T12:51:46.207Z,15.00
2022-09-27T12:54:13.338Z,14.80
2022-09-27T12:57:14.616Z,14.60
2022-09-27T13:00:03.113Z,14.30
2022-09-27T13:03:14.718Z,13.90
2022-09-27T13:06:04.475Z,13.70
2022-09-27T13:08:31.687Z,13.60
2022-09-27T13:11:06.144Z,13.60
2022-09-27T13:13:36.890Z,13.70
2022-09-27T13:16:08.755Z,13.70
2022-09-27T13:18:56.021Z,13.80
2022-09-27T13:21:42.076Z,13.70
2022-09-27T13:24:38.105Z,13.60
2022-09-27T13:27:27.857Z,13.60
2022-09-27T13:30:12.923Z,13.50
2022-09-27T13:33:14.089Z,13.40
2022-09-27T13:36:20.112Z,13.30
2022-09-27T13:38:55.607Z,13.10
2022-09-27T13:41:23.129Z,13.00
2022-09-27T13:44:07.332Z,12.80
2022-09-27T13:47:01.643Z,12.70
2022-09-27T13:49:50.006Z,12.60
2022-09-27T13:52:33.720Z,12.50
2022-09-27T13:55:42.963Z,12.50
2022-09-27T13:58:21.082Z,12.50
2022-09-27T14:00:51.435Z,12.50
2022-09-27T14:03:27.185Z,12.60
2022-09-27T14:05:58.424Z,12.60
2022-09-27T14:08:48.984Z,12.60
2022-09-27T14:11:27.744Z,12.60
2022-09-27T14:13:56.026Z,12.50
2022-09-27T14:16:33.882Z,12.50
2022-09-27T14:19:02.649Z,12.40
2022-09-27T14:21:37.781Z,12.20
2022-09-27T14:24:31.049Z,12.20
2022-09-27T14:27:17.385Z,12.10
2022-09-27T14:29:53.373Z,12.20
2022-09-27T14:32:32.323Z,12.20
2022-09-27T14:35:35.583Z,12.30
2022-09-27T14:38:26.520Z,12.40
2022-09-27T14:41:01.402Z,12.50
2022-09-27T14:43:30.305Z,12.70
2022-09-27T14:46:06.937Z,12.90
2022-09-27T14:48:40.154Z,13.00
2022-09-27T14:51:14.116Z,13.20
2022-09-27T14:53:57.206Z,13.20
2022-09-27T14:56:27.859Z,13.10
2022-09-27T14:59:05.730Z,13.00
2022-09-27T15:01:35.184Z,12.80
2022-09-27T15:04:07.906Z,12.60
2022-09-27T15:06:38.308Z,12.50
2022-09-27T15:09:07.283Z,12.50
2022-09-27T15:11:34.871Z,12.40
2022-09-27T15:14:03.947Z,12.30
2022-09-27T15:16:31.803Z,12.30
2022-09-27T15:19:02.549Z,12.40
2022-09-27T15:21:35.382Z,12.50
2022-09-27T15:24:03.149Z,13.10
2022-09-27T15:26:52.936Z,13.80
2022-09-27T15:29:23.054Z,14.20
2022-09-27T15:32:02.739Z,14.90
2022-09-27T15:34:34.782Z,15.70
2022-09-27T15:37:03.755Z,16.20
2022-09-27T15:39:39.922Z,16.80
2022-09-27T15:42:10.095Z,17.20
2022-09-27T15:44:43.111Z,17.10
2022-09-27T15:47:34.952Z,16.70
2022-09-27T15:50:17.157Z,16.40
2022-09-27T15:52:58.598Z,16.40
2022-09-27T15:55:27.325Z,16.50
2022-09-27T15:58:06.154Z,16.70
2022-09-27T16:00:33.390Z,16.40
2022-09-27T16:03:00.376Z,16.00
2022-09-27T16:05:28.468Z,15.50
2022-09-27T16:07:56.234Z,15.10
2022-09-27T16:10:29.575Z,14.80
2022-09-27T16:12:56.686Z,14.60
2022-09-27T16:15:23.751Z,14.40
2022-09-27T16:17:54.932Z,14.30
2022-09-27T16:20:25.546Z,14.20
2022-09-27T16:22:53.977Z,14.10
2022-09-27T16:25:24.851Z,14.00
2022-09-27T16:29:15.982Z,13.90
2022-09-27T16:31:50.190Z,13.80
2022-09-27T16:34:20.726Z,13.70
2022-09-27T16:36:52.311Z,13.60
2022-09-27T16:39:19.722Z,13.60
2022-09-27T16:41:47.012Z,13.50
2022-09-27T16:44:18.477Z,13.40
2022-09-27T16:46:48.153Z,13.30
2022-09-27T16:49:33.907Z,13.30
2022-09-27T16:52:01.011Z,13.30
2022-09-27T16:54:31.582Z,13.20
2022-09-27T16:56:59.714Z,13.10
2022-09-27T16:59:27.051Z,13.10
2022-09-27T17:01:58.105Z,13.00
2022-09-27T17:04:27.513Z,13.00
2022-09-27T17:06:55.330Z,12.90
2022-09-27T17:09:25.352Z,12.80
2022-09-27T17:11:54.220Z,12.60
2022-09-27T17:14:21.464Z,12.50
2022-09-27T17:16:49.489Z,12.40
2022-09-27T17:19:18.484Z,12.30
2022-09-27T17:21:46.303Z,12.20
2022-09-27T17:24:13.665Z,12.20
2022-09-27T17:26:41.157Z,12.10
2022-09-27T17:29:09.732Z,12.10
2022-09-27T17:31:39.930Z,12.10
2022-09-27T17:34:10.409Z,12.00
2022-09-27T17:36:41.597Z,12.10
2022-09-27T17:39:13.078Z,12.00
2022-09-27T17:41:40.363Z,12.00
2022-09-27T17:44:07.486Z,12.00
2022-09-27T17:46:36.455Z,12.00
2022-09-27T17:49:22.883Z,11.90
2022-09-27T17:51:52.204Z,11.90
2022-09-27T17:54:22.922Z,11.90
2022-09-27T17:56:51.246Z,11.90
2022-09-27T17:59:19.614Z,11.80
2022-09-27T18:01:47.951Z,11.80
2022-09-27T18:04:18.887Z,11.80
2022-09-27T18:06:47.611Z,11.80
2022-09-27T18:09:19.010Z,11.80
2022-09-27T18:11:45.945Z,11.80
2022-09-27T18:14:13.325Z,11.80
2022-09-27T18:16:43.103Z,11.80
2022-09-27T18:19:13.619Z,11.90
2022-09-27T18:21:40.723Z,11.90
2022-09-27T18:24:10.975Z,11.80
2022-09-27T18:26:39.006Z,11.80
2022-09-27T18:29:12.183Z,11.90
2022-09-27T18:31:47.422Z,11.90
2022-09-27T18:34:17.265Z,11.90
2022-09-27T18:36:45.014Z,11.90
2022-09-27T18:39:15.874Z,11.90
2022-09-27T18:41:43.149Z,11.90
2022-09-27T18:44:13.140Z,11.90
2022-09-27T18:46:40.260Z,12.00
2022-09-27T18:49:10.842Z,12.00
2022-09-27T18:51:42.041Z,12.00
2022-09-27T18:54:16.737Z,12.00
2022-09-27T18:56:44.118Z,12.00
2022-09-27T18:59:11.996Z,12.00
2022-09-27T19:01:43.293Z,12.10
2022-09-27T19:04:12.964Z,12.10
2022-09-27T19:06:40.614Z,12.10
2022-09-27T19:09:08.620Z,12.10
2022-09-27T19:11:35.686Z,12.10
2022-09-27T19:14:05.167Z,12.10
2022-09-27T19:16:32.493Z,12.20
2022-09-27T19:19:01.053Z,12.10
2022-09-27T19:21:29.668Z,12.20
2022-09-27T19:24:09.110Z,12.20
2022-09-27T19:26:36.142Z,12.20
2022-09-27T19:29:03.789Z,12.20
2022-09-27T19:31:30.910Z,12.20
2022-09-27T19:34:00.439Z,12.20
2022-09-27T19:36:28.452Z,12.20
2022-09-27T19:39:02.398Z,12.20
2022-09-27T19:41:29.730Z,12.20
2022-09-27T19:43:57.932Z,12.20
2022-09-27T19:46:25.804Z,12.20
2022-09-27T19:48:53.888Z,12.20
2022-09-27T19:51:23.142Z,12.20
2022-09-27T19:53:51.137Z,12.20
2022-09-27T19:56:20.260Z,12.20
2022-09-27T19:58:47.515Z,12.30
2022-09-27T20:01:19.088Z,12.30
2022-09-27T20:03:48.462Z,12.30
2022-09-27T20:06:19.801Z,12.30
2022-09-27T20:08:50.812Z,12.30
2022-09-27T20:11:33.494Z,12.30
2022-09-27T20:14:04.953Z,12.30
2022-09-27T20:16:58.609Z,12.30
2022-09-27T20:19:42.611Z,12.30
2022-09-27T20:25:15.971Z,12.30
2022-09-27T20:28:07.931Z,12.20
2022-09-27T20:30:36.308Z,12.10
2022-09-27T20:33:23.757Z,11.90
2022-09-27T20:35:54.151Z,11.90
2022-09-27T20:38:21.397Z,11.80
2022-09-27T20:40:56.018Z,11.80
2022-09-27T20:43:26.473Z,11.80
2022-09-27T20:45:59.561Z,11.70
2022-09-27T20:48:26.694Z,11.70
2022-09-27T20:51:01.299Z,11.70
2022-09-27T20:53:32.093Z,11.60
2022-09-27T20:56:02.768Z,11.50
2022-09-27T20:58:33.676Z,11.50
2022-09-27T21:01:07.769Z,11.40
2022-09-27T21:03:34.966Z,11.40
2022-09-27T21:06:02.511Z,11.40
2022-09-27T21:08:31.306Z,11.30
2022-09-27T21:11:11.094Z,11.40
2022-09-27T21:13:39.766Z,11.30
2022-09-27T21:16:14.337Z,11.30
2022-09-27T21:18:41.918Z,11.30
2022-09-27T21:21:11.451Z,11.30
2022-09-27T21:23:44.293Z,11.30
2022-09-27T21:26:13.076Z,11.30
2022-09-27T21:28:55.554Z,11.30
2022-09-27T21:31:28.063Z,11.30
2022-09-27T21:33:59.235Z,11.30
2022-09-27T21:36:44.387Z,11.30
2022-09-27T21:39:13.998Z,11.30
2022-09-27T21:41:41.583Z,11.30
2022-09-27T21:44:11.577Z,11.30
2022-09-27T21:46:42.228Z,11.30
2022-09-27T21:49:10.301Z,11.40
2022-09-27T21:51:39.852Z,11.40
2022-09-27T21:54:10.227Z,11.30
2022-09-27T21:56:39.399Z,11.40
2022-09-27T21:59:09.426Z,11.40
2022-09-27T22:01:36.544Z,11.40
2022-09-27T22:04:06.503Z,11.50
2022-09-27T22:06:36.412Z,11.50
2022-09-27T22:09:06.968Z,11.50
2022-09-27T22:11:37.846Z,11.50
2022-09-27T22:14:09.599Z,11.60
2022-09-27T22:16:37.555Z,11.60
2022-09-27T22:19:05.197Z,11.70
2022-09-27T22:21:35.364Z,11.70
2022-09-27T22:24:08.065Z,11.70
2022-09-27T22:26:36.255Z,11.80
2022-09-27T22:29:03.726Z,11.80
2022-09-27T22:31:30.922Z,11.80
2022-09-27T22:34:03.670Z,11.80
2022-09-27T22:36:31.889Z,11.80
2022-09-27T22:38:59.226Z,11.80
2022-09-27T22:41:26.415Z,11.80
2022-09-27T22:43:53.722Z,11.70
2022-09-27T22:46:22.153Z,11.70
2022-09-27T22:48:50.015Z,11.70
2022-09-27T22:51:18.469Z,11.70
2022-09-27T22:53:45.670Z,11.70
2022-09-27T22:56:18.269Z,11.70
2022-09-27T22:58:45.688Z,11.60
2022-09-27T23:01:23.805Z,11.60
2022-09-27T23:03:52.772Z,11.60
2022-09-27T23:06:21.241Z,11.60
2022-09-27T23:08:48.539Z,11.60
2022-09-27T23:11:18.746Z,11.60
2022-09-27T23:13:46.667Z,11.60
2022-09-27T23:16:20.170Z,11.70
2022-09-27T23:18:48.023Z,11.70
2022-09-27T23:21:16.216Z,11.70
2022-09-27T23:23:45.779Z,11.70
2022-09-27T23:26:14.892Z,11.70
2022-09-27T23:28:43.213Z,11.70
2022-09-27T23:31:11.686Z,11.70
2022-09-27T23:33:40.762Z,11.80
2022-09-27T23:36:09.711Z,11.80
2022-09-27T23:38:38.968Z,11.90
2022-09-27T23:41:07.193Z,11.90
2022-09-27T23:43:35.530Z,12.00
2022-09-27T23:46:03.631Z,12.00
2022-09-27T23:48:30.541Z,12.00
2022-09-27T23:50:57.598Z,12.00
2022-09-27T23:53:25.076Z,12.10
2022-09-27T23:56:10.895Z,12.10
2022-09-27T23:58:40.261Z,12.20
